Time;durP1;ratioP1;P1;durP2;ratioP2;P2;SDS_P1;SDS_P2;PMS_P1;PMS_P2;Temp;Humidity;BMP_temperature;BMP_pressure;BME280_temperature;BME280_humidity;BME280_pressure;Samples;Min_cycle;Max_cycle;Signal;HPM_P1;HPM_P2
2021/03/19 00:01:35;;;;;;;3.47;3.17;;;;;;;12.07;50.80;99265.98;1777666;79;21610;-67
2021/03/19 00:04:03;;;;;;;3.60;3.30;;;;;;;12.08;50.82;99265.47;1766758;79;21589;-67
2021/03/19 00:06:32;;;;;;;3.20;2.90;;;;;;;12.08;50.81;99262.81;1760471;79;21188;-67
2021/03/19 00:09:02;;;;;;;3.47;3.15;;;;;;;12.07;50.80;99263.32;1778606;79;22597;-67
2021/03/19 00:11:29;;;;;;;3.37;3.08;;;;;;;12.06;50.81;99257.66;1763995;79;21189;-67
2021/03/19 00:13:57;;;;;;;3.50;3.20;;;;;;;12.07;50.81;99255.81;1770614;79;21155;-66
2021/03/19 00:16:25;;;;;;;4.25;3.50;;;;;;;12.07;50.83;99254.48;1771867;79;21160;-67
2021/03/19 00:18:54;;;;;;;3.52;3.22;;;;;;;12.05;50.83;99251.19;1760712;79;21175;-67
2021/03/19 00:21:22;;;;;;;4.85;4.35;;;;;;;12.06;50.81;99255.52;1759208;79;21373;-67
2021/03/19 00:23:49;;;;;;;5.20;3.90;;;;;;;12.06;50.81;99252.85;1769671;78;21163;-67
2021/03/19 00:26:17;;;;;;;3.95;3.47;;;;;;;12.04;50.83;99250.38;1760684;79;21183;-66
2021/03/19 00:28:45;;;;;;;3.85;3.55;;;;;;;12.04;50.85;99244.23;1775768;78;22559;-66
2021/03/19 00:31:12;;;;;;;3.45;3.15;;;;;;;12.04;50.84;99249.56;1765726;79;21477;-67
2021/03/19 00:33:40;;;;;;;3.83;3.42;;;;;;;12.03;50.85;99246.05;1771732;79;21380;-68
2021/03/19 00:36:08;;;;;;;4.15;3.75;;;;;;;12.02;50.86;99244.42;1764980;79;21152;-67
2021/03/19 00:38:36;;;;;;;3.22;2.92;;;;;;;12.02;50.86;99240.94;1775219;79;21672;-67
2021/03/19 00:41:03;;;;;;;4.17;3.60;;;;;;;12.02;50.86;99245.75;1778740;79;21187;-67
2021/03/19 00:43:31;;;;;;;3.60;3.30;;;;;;;12.00;50.86;99247.27;1780016;79;21176;-68
2021/03/19 00:45:59;;;;;;;3.42;3.12;;;;;;;12.00;50.87;99244.60;1775614;79;22368;-67
2021/03/19 00:48:27;;;;;;;3.95;3.55;;;;;;;12.00;50.87;99245.12;1776844;79;21207;-67
2021/03/19 00:50:55;;;;;;;3.72;3.35;;;;;;;12.00;50.88;99243.78;1768403;79;21471;-66
2021/03/19 00:53:23;;;;;;;3.70;3.40;;;;;;;11.99;50.87;99238.98;1780120;79;21166;-66
2021/03/19 00:58:28;;;;;;;3.75;3.15;;;;;;;12.03;50.90;99239.91;1752261;79;28755;-68
2021/03/19 01:00:55;;;;;;;3.20;2.90;;;;;;;11.98;50.90;99239.98;1721727;81;21006;-66
2021/03/19 01:03:23;;;;;;;3.35;3.05;;;;;;;11.98;50.89;99239.16;1742124;81;21363;-66
2021/03/19 01:05:50;;;;;;;3.12;2.83;;;;;;;11.97;50.92;99244.15;1769243;80;21176;-65
2021/03/19 01:08:17;;;;;;;3.42;2.90;;;;;;;11.96;50.92;99239.86;1756677;81;21151;-66
2021/03/19 01:10:52;;;;;;;3.22;2.90;;;;;;;11.96;50.94;99237.20;1752193;81;21178;-65
2021/03/19 01:13:20;;;;;;;3.85;3.08;;;;;;;11.96;50.93;99243.85;1731129;82;21138;-66
2021/03/19 01:15:48;;;;;;;3.75;3.35;;;;;;;11.95;50.94;99245.66;1723822;82;21390;-67
2021/03/19 01:18:17;;;;;;;3.37;2.98;;;;;;;11.95;50.94;99243.52;1729671;82;21137;-66
2021/03/19 01:20:47;;;;;;;3.33;3.02;;;;;;;11.95;50.94;99243.52;1728463;82;21210;-66
2021/03/19 01:23:15;;;;;;;3.77;3.35;;;;;;;11.94;50.96;99241.38;1722169;82;21211;-66
2021/03/19 01:25:43;;;;;;;3.60;3.00;;;;;;;11.94;50.95;99243.22;1731808;82;21166;-67
2021/03/19 01:28:14;;;;;;;3.08;2.77;;;;;;;11.94;50.94;99251.20;1722227;82;22629;-66
2021/03/19 01:30:42;;;;;;;3.17;2.75;;;;;;;11.94;50.94;99252.53;1733405;82;21174;-68
2021/03/19 01:33:10;;;;;;;2.90;2.60;;;;;;;11.93;50.94;99246.87;1726611;82;21152;-66
2021/03/19 01:35:40;;;;;;;2.87;2.67;;;;;;;11.93;50.96;99255.68;1720712;82;21372;-66
2021/03/19 01:38:08;;;;;;;3.30;2.95;;;;;;;11.85;50.96;99238.98;1727586;82;21821;-66
2021/03/19 01:40:40;;;;;;;3.12;2.83;;;;;;;11.92;50.98;99252.72;1728154;82;22124;-65
2021/03/19 01:43:30;;;;;;;3.27;2.98;;;;;;;11.91;50.98;99249.72;1727423;82;21150;-66
2021/03/19 01:46:55;;;;;;;3.55;3.20;;;;;;;11.91;50.96;99253.71;1728130;82;21170;-66
2021/03/19 01:50:20;;;;;;;2.95;2.65;;;;;;;11.90;50.97;99252.08;1718423;82;21173;-66
2021/03/19 01:53:44;;;;;;;3.60;3.30;;;;;;;11.84;51.06;99256.80;1727100;82;21111;-66
2021/03/19 01:57:08;;;;;;;3.30;3.00;;;;;;;11.80;51.13;99260.34;1727804;82;21737;-66
2021/03/19 02:00:31;;;;;;;3.30;2.98;;;;;;;11.76;51.20;99264.39;1725188;82;21125;-67
2021/03/19 02:03:56;;;;;;;2.75;2.45;;;;;;;11.72;51.29;99263.09;1724584;82;21131;-67
2021/03/19 02:07:20;;;;;;;3.17;2.87;;;;;;;11.69;51.37;99260.00;1729494;82;21123;-66
2021/03/19 02:10:44;;;;;;;3.15;2.83;;;;;;;11.65;51.42;99260.03;1728286;82;21592;-65
2021/03/19 02:14:08;;;;;;;3.10;2.80;;;;;;;11.61;51.51;99268.41;1729094;82;21529;-65
2021/03/19 02:17:32;;;;;;;3.60;2.42;;;;;;;11.60;51.55;99267.25;1724962;82;21164;-66
2021/03/19 02:20:56;;;;;;;2.77;2.57;;;;;;;11.58;51.61;99271.42;1734870;82;21104;-66
2021/03/19 02:24:19;;;;;;;2.87;2.53;;;;;;;11.55;51.64;99269.16;1714983;82;21158;-66
2021/03/19 02:27:26;;;;;;;;;;;;;;;11.54;51.69;99274.14;1728212;82;21210;-65
2021/03/19 02:30:30;;;;;;;;;;;;;;;11.52;51.76;99272.69;1728339;82;21297;-65
2021/03/19 02:32:58;;;;;;;2.92;2.62;;;;;;;11.44;51.88;99280.78;1725748;82;20222;-66
2021/03/19 02:35:25;;;;;;;2.98;2.67;;;;;;;11.38;52.01;99274.36;1726453;82;21165;-66
2021/03/19 02:37:53;;;;;;;3.58;3.17;;;;;;;11.41;52.00;99276.15;1714991;82;21210;-66
2021/03/19 02:40:22;;;;;;;2.72;2.52;;;;;;;11.45;51.93;99277.09;1722672;82;22205;-66
2021/03/19 02:42:49;;;;;;;3.05;2.50;;;;;;;11.47;51.88;99275.89;1722251;82;22122;-67
2021/03/19 02:45:21;;;;;;;3.08;2.72;;;;;;;11.49;51.85;99279.22;1726968;82;21170;-67
2021/03/19 02:47:50;;;;;;;;;;;;;;;11.53;51.83;99284.96;1734076;82;21207;-67
2021/03/19 02:50:18;;;;;;;3.20;2.90;;;;;;;11.55;51.77;99288.26;1722084;82;20388;-67
2021/03/19 02:52:45;;;;;;;2.90;2.47;;;;;;;11.49;51.83;99290.34;1726664;82;21608;-67
2021/03/19 02:55:16;;;;;;;3.15;2.72;;;;;;;11.51;51.81;99286.98;1724449;81;21234;-68
2021/03/19 02:57:43;;;;;;;3.22;2.87;;;;;;;11.55;51.75;99292.25;1717566;82;21185;-67
2021/03/19 03:00:16;;;;;;;3.00;2.50;;;;;;;11.58;51.71;99294.55;1702202;82;21192;-68
2021/03/19 03:02:43;;;;;;;2.98;2.62;;;;;;;11.59;51.65;99298.88;1753749;80;21218;-68
2021/03/19 03:05:12;;;;;;;3.08;2.70;;;;;;;11.61;51.62;99295.52;1770864;80;21578;-67
2021/03/19 03:07:40;;;;;;;2.92;2.62;;;;;;;11.63;51.60;99299.30;1747495;80;21341;-68
2021/03/19 03:10:10;;;;;;;3.87;3.30;;;;;;;11.64;51.55;99299.64;1757798;80;21174;-67
2021/03/19 03:12:40;;;;;;;3.67;3.15;;;;;;;11.65;51.53;99301.27;1753628;80;21774;-68
2021/03/19 03:15:12;;;;;;;3.08;2.75;;;;;;;11.66;51.50;99306.41;1750981;79;21150;-67
2021/03/19 03:17:40;;;;;;;3.47;2.95;;;;;;;11.66;51.47;99306.41;1752968;80;21601;-67
2021/03/19 03:20:12;;;;;;;3.35;2.87;;;;;;;11.67;51.45;99305.94;1751877;80;22297;-68
2021/03/19 03:22:42;;;;;;;3.20;2.90;;;;;;;11.67;51.44;99306.75;1759176;79;21201;-68
2021/03/19 03:25:13;;;;;;;3.45;3.05;;;;;;;11.68;51.42;99312.89;1767030;80;21186;-68
2021/03/19 03:27:40;;;;;;;3.35;3.05;;;;;;;11.68;51.41;99306.23;1748828;79;21209;-66
2021/03/19 03:30:16;;;;;;;3.10;2.80;;;;;;;11.68;51.39;99312.89;1756467;79;21037;-66
2021/03/19 03:32:45;;;;;;;4.33;3.62;;;;;;;11.69;51.35;99302.58;1761426;80;21342;-67
2021/03/19 03:35:13;;;;;;;3.87;3.35;;;;;;;11.69;51.36;99309.23;1746597;79;21197;-67
2021/03/19 03:37:41;;;;;;;4.17;3.72;;;;;;;11.69;51.35;99315.88;1706022;83;21160;-67
2021/03/19 03:40:12;;;;;;;5.15;4.33;;;;;;;11.70;51.31;99313.52;1757946;79;21150;-67
2021/03/19 03:42:41;;;;;;;4.75;4.15;;;;;;;11.70;51.31;99310.86;1749385;79;21130;-67
2021/03/19 03:45:11;;;;;;;4.78;4.10;;;;;;;11.70;51.30;99318.34;1757697;80;21203;-67
2021/03/19 03:47:39;;;;;;;5.15;4.40;;;;;;;11.70;51.29;99315.67;1749169;80;21174;-67
2021/03/19 03:50:13;;;;;;;5.62;4.97;;;;;;;11.71;51.27;99312.53;1755844;79;21181;-67
2021/03/19 03:52:42;;;;;;;5.55;5.00;;;;;;;11.70;51.28;99312.20;1759494;79;21186;-67
2021/03/19 03:55:11;;;;;;;5.03;4.20;;;;;;;11.70;51.26;99312.20;1756763;79;21143;-66
2021/03/19 03:57:38;;;;;;;4.80;4.30;;;;;;;11.70;51.24;99310.86;1761371;80;21183;-65
2021/03/19 04:00:13;;;;;;;5.17;4.45;;;;;;;11.70;51.24;99312.20;1763797;79;21145;-67
2021/03/19 04:02:40;;;;;;;4.55;4.15;;;;;;;11.69;51.23;99311.38;1757508;79;21631;-67
2021/03/19 04:05:12;;;;;;;5.22;4.50;;;;;;;11.69;51.24;99311.38;1757653;80;21648;-66
2021/03/19 04:07:39;;;;;;;4.92;4.37;;;;;;;11.70;51.23;99313.52;1752946;80;21114;-66
2021/03/19 04:10:09;;;;;;;5.10;4.42;;;;;;;11.69;51.23;99311.89;1757179;79;21437;-67
2021/03/19 04:12:36;;;;;;;4.90;4.40;;;;;;;11.70;51.23;99312.20;1767218;79;21142;-67
2021/03/19 04:15:06;;;;;;;4.78;4.25;;;;;;;11.69;51.22;99317.22;1768091;79;21622;-66
2021/03/19 04:17:34;;;;;;;4.62;4.20;;;;;;;11.68;51.22;99314.22;1751557;80;21177;-66
2021/03/19 04:20:06;;;;;;;4.12;3.50;;;;;;;11.70;51.20;99317.52;1767838;79;21558;-66
2021/03/19 04:22:34;;;;;;;4.47;4.08;;;;;;;11.70;51.20;99316.19;1768555;79;21322;-67
2021/03/19 04:25:02;;;;;;;4.35;3.60;;;;;;;11.69;51.20;99321.20;1756297;80;21587;-67
2021/03/19 04:27:31;;;;;;;4.53;4.08;;;;;;;11.69;51.19;99321.20;1753164;79;21128;-67
2021/03/19 04:29:58;;;;;;;4.45;3.98;;;;;;;11.68;51.20;99320.36;1751244;80;21233;-67
2021/03/19 04:32:25;;;;;;;4.40;4.00;;;;;;;11.69;51.20;99323.87;1769416;80;21630;-67
2021/03/19 04:34:53;;;;;;;4.22;3.83;;;;;;;11.68;51.20;99324.86;1764786;80;22385;-67
2021/03/19 04:37:20;;;;;;;4.10;3.70;;;;;;;11.68;51.17;99324.34;1772182;79;21186;-67
2021/03/19 04:39:48;;;;;;;4.50;3.95;;;;;;;11.68;51.17;99327.01;1719490;81;21437;-67
2021/03/19 04:42:17;;;;;;;3.98;3.55;;;;;;;11.69;51.17;99325.20;1728845;81;21166;-67
2021/03/19 04:44:46;;;;;;;4.80;4.30;;;;;;;11.68;51.16;99322.20;1759158;79;21130;-69
2021/03/19 04:47:14;;;;;;;4.78;4.28;;;;;;;11.68;51.16;99327.52;1761120;79;21383;-67
2021/03/19 04:49:42;;;;;;;5.08;4.58;;;;;;;11.68;51.15;99328.34;1761519;79;21181;-67
2021/03/19 04:52:10;;;;;;;5.37;4.87;;;;;;;11.67;51.16;99320.56;1769227;79;21150;-67
2021/03/19 04:54:37;;;;;;;5.80;4.85;;;;;;;11.69;51.15;99325.20;1752239;79;21178;-67
2021/03/19 04:57:05;;;;;;;5.60;5.10;;;;;;;11.68;51.14;99328.34;1766053;79;21119;-68
2021/03/19 04:59:33;;;;;;;6.15;4.78;;;;;;;11.68;51.15;99325.68;1769880;80;21142;-66
2021/03/19 05:02:01;;;;;;;5.75;5.17;;;;;;;11.67;51.15;99324.05;1763861;80;21209;-67
2021/03/19 05:04:29;;;;;;;5.75;5.10;;;;;;;11.68;51.13;99327.52;1776263;79;21146;-66
2021/03/19 05:07:04;;;;;;;6.03;5.42;;;;;;;11.68;51.14;99328.85;1766394;79;21129;-67
2021/03/19 05:09:32;;;;;;;5.42;4.92;;;;;;;11.68;51.12;99330.19;1754592;81;21139;-67
2021/03/19 05:12:00;;;;;;;5.90;5.20;;;;;;;11.68;51.15;99330.19;1729005;82;22778;-67
2021/03/19 05:14:27;;;;;;;6.55;5.95;;;;;;;11.68;51.13;99337.66;1749877;81;21164;-67
2021/03/19 05:16:54;;;;;;;5.55;5.05;;;;;;;11.68;51.14;99335.50;1738985;80;21171;-67
2021/03/19 05:19:23;;;;;;;5.87;5.33;;;;;;;11.68;51.14;99336.84;1754979;80;21130;-67
2021/03/19 05:21:50;;;;;;;5.80;5.30;;;;;;;11.68;51.14;99340.83;1724984;81;21379;-66
2021/03/19 05:24:17;;;;;;;6.75;5.58;;;;;;;11.69;51.10;99345.16;1744952;81;21567;-67
2021/03/19 05:26:45;;;;;;;5.65;5.05;;;;;;;11.68;51.12;99339.50;1706720;83;21169;-66
2021/03/19 05:29:13;;;;;;;5.10;4.60;;;;;;;11.69;51.10;99339.31;1750398;81;21152;-67
2021/03/19 05:31:42;;;;;;;5.53;5.03;;;;;;;11.69;51.10;99334.00;1702282;83;21681;-67
2021/03/19 05:34:11;;;;;;;5.15;4.65;;;;;;;11.70;51.11;99340.13;1734525;81;21140;-66
2021/03/19 05:36:38;;;;;;;4.95;4.47;;;;;;;11.70;51.09;99336.14;1729079;81;22403;-67
2021/03/19 05:39:07;;;;;;;5.58;5.08;;;;;;;11.70;51.08;99338.29;1741495;81;21161;-67
2021/03/19 05:41:38;;;;;;;5.55;4.97;;;;;;;11.71;51.10;99343.13;1738422;80;21191;-68
2021/03/19 05:44:14;;;;;;;5.28;4.78;;;;;;;11.71;51.07;99347.94;1709658;81;21157;-67
2021/03/19 05:46:48;;;;;;;5.50;4.87;;;;;;;11.72;51.08;99354.89;1723811;82;21176;-66
2021/03/19 05:49:23;;;;;;;4.70;4.30;;;;;;;11.72;51.07;99352.23;1765061;79;22314;-66
2021/03/19 05:51:59;;;;;;;5.12;4.50;;;;;;;11.72;51.07;99348.24;1761582;80;21210;-67
2021/03/19 05:54:33;;;;;;;5.35;4.70;;;;;;;11.73;51.07;99357.89;1763427;79;21113;-67
2021/03/19 05:57:08;;;;;;;4.65;4.22;;;;;;;11.74;51.05;99361.37;1730434;80;21163;-67
2021/03/19 05:59:44;;;;;;;4.97;4.50;;;;;;;11.73;51.04;99357.08;1756465;79;21178;-68
2021/03/19 06:02:34;;;;;;;4.97;4.50;;;;;;;11.75;51.04;99368.36;1765860;80;21372;-66
2021/03/19 06:05:16;;;;;;;5.67;4.95;;;;;;;11.73;51.05;99364.55;1769536;80;21636;-67
2021/03/19 06:07:54;;;;;;;4.62;4.17;;;;;;;11.74;51.08;99364.88;1771694;80;21596;-66
2021/03/19 06:10:40;;;;;;;4.53;4.10;;;;;;;11.74;51.05;99373.34;1736957;82;21225;-68
2021/03/19 06:13:22;;;;;;;4.35;3.95;;;;;;;11.73;51.06;99376.52;1746467;80;21105;-68
2021/03/19 06:15:53;;;;;;;4.83;4.33;;;;;;;11.75;51.08;99380.33;1721240;81;21433;-67
2021/03/19 06:18:35;;;;;;;4.67;4.17;;;;;;;11.74;51.06;99382.66;1725604;82;21193;-67
2021/03/19 06:21:13;;;;;;;4.58;3.83;;;;;;;11.74;51.08;99385.32;1724077;81;21157;-67
2021/03/19 06:23:45;;;;;;;4.62;4.10;;;;;;;11.74;51.08;99383.98;1734239;81;21156;-67
2021/03/19 06:26:29;;;;;;;4.40;4.00;;;;;;;11.73;51.07;99384.50;1718266;81;21728;-68
2021/03/19 06:29:22;;;;;;;4.35;3.95;;;;;;;11.74;51.08;99390.16;1721989;82;21503;-67
2021/03/19 06:32:26;;;;;;;4.22;3.83;;;;;;;11.75;51.09;99388.31;1718331;81;21664;-66
2021/03/19 06:35:03;;;;;;;4.10;3.70;;;;;;;11.73;51.10;99391.67;1753036;79;21590;-67
2021/03/19 06:37:35;;;;;;;4.25;3.85;;;;;;;11.72;51.13;99393.99;1764406;79;21232;-67
2021/03/19 06:40:30;;;;;;;4.08;3.62;;;;;;;11.71;51.14;99399.83;1748791;80;21628;-67
2021/03/19 06:43:25;;;;;;;4.25;3.55;;;;;;;11.71;51.13;99392.36;1775892;79;21380;-66
2021/03/19 06:46:17;;;;;;;4.40;4.00;;;;;;;11.72;51.14;99400.64;1766324;80;21167;-67
2021/03/19 06:49:00;;;;;;;4.10;3.70;;;;;;;11.70;51.18;99398.16;1772416;80;21166;-67
2021/03/19 06:51:33;;;;;;;4.08;3.67;;;;;;;11.70;51.19;99399.48;1760653;80;21148;-66
2021/03/19 06:54:08;;;;;;;4.03;3.62;;;;;;;11.71;51.18;99399.02;1756118;79;21154;-68
2021/03/19 06:56:38;;;;;;;4.08;3.67;;;;;;;11.72;51.19;99404.13;1761688;80;21200;-66
2021/03/19 06:59:26;;;;;;;4.28;3.87;;;;;;;11.73;51.17;99396.98;1712806;82;21168;-68
2021/03/19 07:01:54;;;;;;;4.03;3.62;;;;;;;11.74;51.16;99404.80;1726483;82;21158;-66
2021/03/19 07:05:02;;;;;;;3.70;3.30;;;;;;;11.75;51.13;99399.78;1728994;81;21152;-67
2021/03/19 07:08:13;;;;;;;4.00;3.55;;;;;;;11.77;51.10;99404.92;1728936;82;21155;-67
2021/03/19 07:11:00;;;;;;;4.00;3.60;;;;;;;11.77;51.11;99405.73;1746861;82;22254;-66
2021/03/19 07:13:38;;;;;;;3.45;3.15;;;;;;;11.75;51.12;99407.76;1735412;81;21129;-66
2021/03/19 07:16:29;;;;;;;4.10;3.70;;;;;;;11.76;51.12;99408.58;1734755;81;21586;-66
2021/03/19 07:19:26;;;;;;;3.52;3.22;;;;;;;11.77;51.14;99408.91;1734392;81;21623;-67
2021/03/19 07:22:48;;;;;;;3.47;3.12;;;;;;;11.77;51.13;99412.91;1723340;82;21150;-68
2021/03/19 07:26:12;;;;;;;3.55;3.25;;;;;;;11.76;51.13;99413.42;1690401;82;21764;-65
2021/03/19 07:29:40;;;;;;;3.98;3.58;;;;;;;11.76;51.12;99416.56;1723355;81;21193;-66
2021/03/19 07:32:27;;;;;;;4.05;3.65;;;;;;;11.75;51.15;99416.26;1714862;81;21165;-66
2021/03/19 07:35:45;;;;;;;3.83;3.22;;;;;;;11.74;51.19;99421.24;1719868;81;21256;-68
2021/03/19 07:38:42;;;;;;;3.85;3.55;;;;;;;11.75;51.23;99420.25;1727658;81;22399;-67
2021/03/19 07:42:18;;;;;;;4.10;3.70;;;;;;;11.75;51.24;99421.06;1716419;82;21198;-68
2021/03/19 07:45:05;;;;;;;3.05;2.70;;;;;;;11.74;51.23;99418.58;1721361;81;21189;-67
2021/03/19 07:47:56;;;;;;;3.62;3.33;;;;;;;11.75;51.24;99421.06;1707580;82;21142;-68
2021/03/19 07:51:06;;;;;;;4.33;3.40;;;;;;;11.76;51.23;99416.56;1719179;82;21154;-68
2021/03/19 07:54:48;;;;;;;4.33;3.60;;;;;;;11.78;51.28;99423.86;1765227;79;21181;-69
2021/03/19 07:57:47;;;;;;;3.40;3.10;;;;;;;11.78;51.42;99420.71;1764486;80;21200;-68
2021/03/19 08:00:38;;;;;;;3.58;3.27;;;;;;;11.79;51.42;99416.20;1750386;80;21214;-66
2021/03/19 08:03:37;;;;;;;4.62;3.92;;;;;;;11.80;51.38;99421.35;1729626;81;21160;-67
2021/03/19 08:06:24;;;;;;;4.00;3.62;;;;;;;11.81;51.36;99424.31;1712107;81;21653;-67
2021/03/19 08:09:37;;;;;;;3.47;3.15;;;;;;;11.84;51.36;99429.80;1708187;81;21228;-67
2021/03/19 08:12:15;;;;;;;3.45;3.15;;;;;;;11.85;51.33;99430.10;1714500;81;22131;-67
2021/03/19 08:15:07;;;;;;;3.58;3.27;;;;;;;11.86;51.30;99429.11;1760526;81;21156;-68
2021/03/19 08:17:43;;;;;;;3.30;3.00;;;;;;;11.86;51.29;99426.45;1723179;82;21625;-68
2021/03/19 08:20:50;;;;;;;3.40;3.10;;;;;;;11.87;51.30;99428.08;1749375;81;21473;-68
2021/03/19 08:23:29;;;;;;;3.60;3.22;;;;;;;11.88;51.25;99431.56;1727837;81;21155;-68
2021/03/19 08:25:56;;;;;;;3.55;3.25;;;;;;;11.88;51.25;99433.74;1698835;83;21420;-67
2021/03/19 08:28:52;;;;;;;3.95;3.50;;;;;;;11.88;51.25;99429.75;1725326;81;21171;-68
2021/03/19 08:31:28;;;;;;;4.08;3.55;;;;;;;11.91;51.22;99432.57;1737058;80;21186;-65
2021/03/19 08:34:04;;;;;;;4.20;3.77;;;;;;;11.93;51.18;99434.54;1728679;81;21152;-67
2021/03/19 08:36:51;;;;;;;4.15;3.77;;;;;;;11.93;51.17;99440.68;1717339;82;21137;-65
2021/03/19 08:39:43;;;;;;;3.52;3.22;;;;;;;11.96;51.14;99438.17;1750091;80;21203;-67
2021/03/19 08:42:25;;;;;;;3.83;3.25;;;;;;;11.98;51.09;99438.30;1742685;81;21191;-65
2021/03/19 08:44:52;;;;;;;3.42;3.12;;;;;;;11.99;51.07;99441.30;1756386;81;21665;-68
2021/03/19 08:47:30;;;;;;;3.33;3.02;;;;;;;11.99;51.04;99442.63;1768371;80;21571;-68
2021/03/19 08:50:18;;;;;;;3.90;3.42;;;;;;;12.03;50.98;99447.05;1762149;79;21118;-66
2021/03/19 08:53:13;;;;;;;3.35;3.05;;;;;;;12.04;50.94;99442.58;1766787;80;22951;-65
2021/03/19 08:55:48;;;;;;;5.47;3.83;;;;;;;12.04;50.94;99443.91;1766008;80;21143;-66
2021/03/19 08:58:31;;;;;;;3.72;3.33;;;;;;;12.07;50.95;99441.70;1764661;79;28238;-66
2021/03/19 09:01:07;;;;;;;3.60;3.30;;;;;;;12.04;50.91;99444.73;1736750;82;21191;-66
2021/03/19 09:03:49;;;;;;;4.00;3.60;;;;;;;12.06;50.92;99448.55;1739747;80;21202;-66
2021/03/19 09:06:21;;;;;;;3.67;3.33;;;;;;;12.06;50.89;99449.36;1758763;80;21213;-67
2021/03/19 09:08:59;;;;;;;3.70;3.37;;;;;;;12.08;50.88;99449.19;1759872;80;21239;-69
2021/03/19 09:11:44;;;;;;;3.95;3.40;;;;;;;12.08;50.86;99451.33;1755533;79;21141;-67
2021/03/19 09:14:16;;;;;;;3.35;3.05;;;;;;;12.10;50.84;99453.30;1750669;79;21151;-67
2021/03/19 09:16:56;;;;;;;3.65;3.35;;;;;;;12.10;50.83;99452.48;1765466;79;21339;-68
2021/03/19 09:19:42;;;;;;;3.80;3.17;;;;;;;12.12;50.82;99445.14;1748384;79;21131;-67
2021/03/19 09:22:25;;;;;;;3.92;3.50;;;;;;;12.16;50.76;99447.74;1723903;81;21135;-68
2021/03/19 09:25:16;;;;;;;4.47;3.90;;;;;;;12.22;50.71;99448.33;1743613;81;21130;-70
2021/03/19 09:28:17;;;;;;;4.10;3.72;;;;;;;12.26;50.67;99449.60;1746790;81;21579;-69
2021/03/19 09:30:55;;;;;;;3.95;3.55;;;;;;;12.33;50.57;99445.19;1748522;79;21561;-69
2021/03/19 09:33:47;;;;;;;3.45;3.15;;;;;;;12.37;50.51;99447.80;1751428;81;21671;-69
2021/03/19 09:36:54;;;;;;;4.30;3.65;;;;;;;12.43;50.45;99446.73;1749366;79;21158;-70
2021/03/19 09:39:55;;;;;;;4.15;3.47;;;;;;;12.46;50.38;99449.86;1750066;81;22136;-68
2021/03/19 09:42:30;;;;;;;3.85;3.40;;;;;;;12.48;50.31;99456.34;1750536;81;21147;-70
2021/03/19 09:45:10;;;;;;;3.92;3.58;;;;;;;12.49;50.30;99449.98;1748492;79;22292;-65
2021/03/19 09:47:40;;;;;;;4.20;3.67;;;;;;;12.50;50.28;99447.66;1751621;81;21150;-70
2021/03/19 09:50:25;;;;;;;4.42;3.70;;;;;;;12.53;50.25;99456.58;1747252;81;21203;-67
2021/03/19 09:53:08;;;;;;;;;;;;;;;12.57;50.21;99457.85;1730454;82;21170;-70
2021/03/19 09:55:40;;;;;;;4.25;3.85;;;;;;;12.60;50.16;99457.48;1749147;81;20291;-67
2021/03/19 09:58:25;;;;;;;3.52;3.22;;;;;;;12.56;50.24;99458.88;1726939;81;21394;-67
2021/03/19 10:00:57;;;;;;;3.17;2.87;;;;;;;12.60;50.19;99450.83;1715116;81;21187;-68
2021/03/19 10:03:25;;;;;;;3.37;3.08;;;;;;;12.66;50.15;99456.73;1724501;82;25755;-70
2021/03/19 10:05:53;;;;;;;3.55;3.20;;;;;;;12.71;50.05;99455.67;1734722;81;21194;-68
2021/03/19 10:08:30;;;;;;;4.00;3.58;;;;;;;12.74;49.99;99460.61;1721724;81;21626;-68
2021/03/19 10:11:11;;;;;;;3.55;3.25;;;;;;;12.78;49.93;99459.72;1746978;80;21211;-67
2021/03/19 10:13:38;;;;;;;4.00;3.45;;;;;;;12.82;49.89;99458.33;1714515;82;21166;-67
2021/03/19 10:16:07;;;;;;;3.65;3.27;;;;;;;12.85;49.83;99459.80;1727554;82;21160;-69
2021/03/19 10:18:43;;;;;;;3.75;3.45;;;;;;;12.88;49.82;99462.89;1709503;83;21217;-70
2021/03/19 10:21:20;;;;;;;3.50;3.00;;;;;;;12.91;49.75;99460.37;1731627;81;21631;-65
2021/03/19 10:23:59;;;;;;;3.70;3.37;;;;;;;12.94;49.70;99466.16;1729204;81;21253;-69
2021/03/19 10:26:40;;;;;;;3.30;3.00;;;;;;;12.97;49.69;99466.27;1722092;82;21284;-65
2021/03/19 10:29:34;;;;;;;3.67;3.15;;;;;;;12.98;49.64;99466.09;1724508;82;21610;-65
2021/03/19 10:32:08;;;;;;;3.17;2.87;;;;;;;12.99;49.63;99469.06;1729971;82;21147;-65
2021/03/19 10:34:45;;;;;;;3.87;3.35;;;;;;;13.01;49.59;99466.72;1732084;82;21169;-67
2021/03/19 10:37:38;;;;;;;3.47;2.92;;;;;;;13.02;49.56;99464.36;1731027;81;21486;-67
2021/03/19 10:40:26;;;;;;;3.40;3.10;;;;;;;13.03;49.55;99472.17;1729849;82;21176;-66
2021/03/19 10:43:01;;;;;;;3.62;3.27;;;;;;;13.04;49.54;99468.98;1705000;82;21134;-66
2021/03/19 10:45:54;;;;;;;3.58;2.90;;;;;;;13.04;49.53;99469.84;1707486;81;21640;-66
2021/03/19 10:48:40;;;;;;;4.62;2.98;;;;;;;13.06;49.49;99462.98;1728980;81;21146;-70
2021/03/19 10:51:52;;;;;;;3.25;2.90;;;;;;;13.05;49.49;99458.66;1723190;82;21472;-69
2021/03/19 10:54:29;;;;;;;3.95;2.90;;;;;;;13.05;49.52;99458.66;1721756;82;21178;-65
2021/03/19 10:57:04;;;;;;;3.30;3.00;;;;;;;13.02;49.54;99453.20;1729703;81;21190;-67
2021/03/19 10:59:36;;;;;;;3.35;3.05;;;;;;;13.03;49.56;99464.69;1729986;82;21194;-66
2021/03/19 11:02:18;;;;;;;2.83;2.62;;;;;;;13.03;49.56;99453.51;1727415;81;22205;-67
2021/03/19 11:05:01;;;;;;;3.40;2.93;;;;;;;13.06;49.55;99457.14;1726882;81;21421;-67
2021/03/19 11:07:33;;;;;;;3.40;3.05;;;;;;;13.07;49.54;99456.62;1724488;82;21329;-66
2021/03/19 11:10:29;;;;;;;3.00;2.70;;;;;;;13.08;49.50;99453.77;1727708;81;21174;-66
2021/03/19 11:13:16;;;;;;;3.40;2.55;;;;;;;13.11;49.51;99455.22;1713201;81;21201;-66
2021/03/19 11:15:45;;;;;;;2.67;2.47;;;;;;;13.11;49.48;99456.03;1722012;81;21110;-67
2021/03/19 11:18:33;;;;;;;3.10;2.80;;;;;;;13.14;49.47;99456.19;1730103;82;21389;-68
2021/03/19 11:21:09;;;;;;;2.90;2.60;;;;;;;13.15;49.44;99457.33;1721514;82;21160;-68
2021/03/19 11:23:45;;;;;;;3.35;3.05;;;;;;;13.16;49.39;99457.63;1730497;82;21678;-67
2021/03/19 11:26:28;;;;;;;2.92;2.70;;;;;;;13.21;49.35;99454.89;1720531;81;21778;-66
2021/03/19 11:29:19;;;;;;;3.12;2.83;;;;;;;13.24;49.29;99454.52;1723343;82;21186;-66
2021/03/19 11:32:03;;;;;;;3.00;2.70;;;;;;;13.28;49.26;99458.45;1731290;82;21218;-69
2021/03/19 11:34:50;;;;;;;3.37;2.87;;;;;;;13.31;49.25;99458.11;1730753;81;21592;-66
2021/03/19 11:37:27;;;;;;;3.10;2.37;;;;;;;13.34;49.22;99455.03;1722543;81;21166;-70
2021/03/19 11:40:19;;;;;;;2.60;2.40;;;;;;;13.36;49.18;99447.66;1723681;82;21192;-65
2021/03/19 11:42:54;;;;;;;2.70;2.50;;;;;;;13.37;49.15;99447.99;1726870;82;21639;-63
2021/03/19 11:45:28;;;;;;;3.40;3.10;;;;;;;13.47;49.02;99458.33;1768884;80;21586;-66
2021/03/19 11:48:29;;;;;;;3.10;2.42;;;;;;;13.61;48.88;99453.39;1763320;80;21646;-65
2021/03/19 11:51:14;;;;;;;2.45;2.25;;;;;;;13.73;48.81;99451.00;1766738;79;21181;-66
2021/03/19 11:53:42;;;;;;;3.52;2.75;;;;;;;13.90;48.63;99451.00;1762950;80;21214;-65
2021/03/19 11:56:49;;;;;;;2.80;2.60;;;;;;;14.20;48.29;99447.23;1802018;78;28255;-64
2021/03/19 11:59:17;;;;;;;2.55;2.35;;;;;;;14.41;47.98;99449.82;1772031;80;21161;-66
2021/03/19 12:01:46;;;;;;;2.90;2.62;;;;;;;14.64;47.71;99445.50;1788025;78;21430;-67
2021/03/19 12:04:21;;;;;;;3.10;2.50;;;;;;;14.89;47.38;99449.77;1787443;79;21212;-68
2021/03/19 12:06:51;;;;;;;2.70;2.50;;;;;;;15.18;47.09;99450.92;1783066;80;21119;-69
2021/03/19 12:09:19;;;;;;;2.55;2.35;;;;;;;15.45;46.74;99442.37;1781050;80;21182;-67
2021/03/19 12:11:47;;;;;;;2.70;2.50;;;;;;;15.74;46.35;99443.80;1782266;80;21138;-64
2021/03/19 12:14:24;;;;;;;2.95;2.62;;;;;;;16.00;45.99;99440.77;1787001;80;21326;-66
2021/03/19 12:16:52;;;;;;;2.90;2.70;;;;;;;16.23;45.64;99446.45;1788521;80;21872;-65
2021/03/19 12:19:19;;;;;;;2.42;2.22;;;;;;;16.47;45.29;99447.57;1782913;80;21182;-65
2021/03/19 12:21:47;;;;;;;2.50;2.30;;;;;;;16.63;45.10;99444.94;1821690;78;21635;-72
2021/03/19 12:24:15;;;;;;;2.60;2.40;;;;;;;16.76;44.87;99442.67;1781124;80;21198;-69
2021/03/19 12:26:42;;;;;;;2.77;2.55;;;;;;;16.90;44.71;99444.78;1796323;78;21350;-66
2021/03/19 12:29:12;;;;;;;2.33;2.12;;;;;;;17.06;44.64;99444.80;1776698;79;21587;-67
2021/03/19 12:31:41;;;;;;;2.83;2.50;;;;;;;17.25;44.47;99437.64;1786869;79;21132;-70
2021/03/19 12:34:09;;;;;;;2.37;2.17;;;;;;;17.47;44.24;99434.84;1789667;79;21197;-67